Ana Sayfa
METAR-TAF:

METAR-TAF

Havaalanları :

Hutchinson County Airport

Borger, Teksas, Amerika Birleşik Devletleri

Enlem: 35-41-42N, Boylam: 101-23-42W, yükseklik: 931 m

Güncel hava durumu gözlemi

Rapor saat 19:51 UTC de 24 dakika önce yapıldı.
Rüzgar değişken yönden 5 kt
Sıcaklık 8°C
Nem 23%
Basınç 1030 hPa
Görüş mesafesi: 16.1 km
12000 ft yükseklikte az bulutlu

METAR: KBGD 181951Z AUTO VRB05KT 10SM FEW120 08/M12 A3041 RMK AO2 SLP294 T00831117

Saat: 14:15 (20:15 UTC)


TAF: eksik

4.000'den fazla havaalanı için hava durumu gözlemleri ve tahminleri (METAR ve TAF raporları).

Kullanılabilir istasyonlar harita üzerinde sarı ve kırmızı noktalarla gösterilir.

İstasyonun adını görmek için fareyi noktanın üzerinde gezdirin.

Sonrasında hava gözlem ve tahminlerini görmek için tıklayın.

Haritayı değiştirmek için: yaklaştırmak için siyah artı işaretli yeşil düğmeye ve uzaklaştırmak için de eksi işaretli düğmeye hızla tıklayın; bitişik haritalar için yeşil okları kullanın.


METAR-TAF: